Time;durP1;ratioP1;P1;durP2;ratioP2;P2;SDS_P1;SDS_P2;PMS_P1;PMS_P2;Temp;Humidity;BMP_temperature;BMP_pressure;BME280_temperature;BME280_humidity;BME280_pressure;Samples;Min_cycle;Max_cycle;Signal;HPM_P1;HPM_P2
2021/12/06 00:01:23;;;;;;;10.80;2.17;;;;;;;11.29;100.00;150490.88;1658635;85;21570;-61
2021/12/06 00:03:56;;;;;;;8.60;2.20;;;;;;;11.28;100.00;150488.28;1657298;85;21015;-61
2021/12/06 00:06:24;;;;;;;10.38;1.85;;;;;;;11.27;100.00;150485.69;1657819;85;21604;-62
2021/12/06 00:08:51;;;;;;;7.03;1.92;;;;;;;11.25;100.00;150480.50;1656887;85;21122;-61
2021/12/06 00:11:18;;;;;;;11.48;2.12;;;;;;;11.24;100.00;150477.91;1654728;85;21097;-62
2021/12/06 00:13:46;;;;;;;7.53;2.22;;;;;;;11.25;100.00;150480.50;1653383;85;21600;-61
2021/12/06 00:16:18;;;;;;;8.38;2.33;;;;;;;11.24;100.00;150479.19;1660805;85;21142;-61
2021/12/06 00:18:45;;;;;;;10.82;2.25;;;;;;;11.23;100.00;150475.31;1656977;85;21476;-62
2021/12/06 00:21:12;;;;;;;9.38;2.25;;;;;;;11.24;100.00;150477.91;1654460;85;21164;-58
2021/12/06 00:23:39;;;;;;;9.83;2.08;;;;;;;11.23;100.00;150476.59;1657401;85;21319;-59
2021/12/06 00:26:07;;;;;;;11.88;2.20;;;;;;;11.24;100.00;150477.91;1661992;85;21077;-59
2021/12/06 00:28:34;;;;;;;10.38;2.58;;;;;;;11.23;100.00;150476.59;1659497;85;21080;-59
2021/12/06 00:31:01;;;;;;;10.23;2.95;;;;;;;11.23;100.00;150476.59;1657398;85;21466;-59
2021/12/06 00:33:28;;;;;;;12.30;2.08;;;;;;;11.25;100.00;150480.50;1654940;85;21488;-59
2021/12/06 00:35:57;;;;;;;9.13;2.10;;;;;;;11.23;100.00;150475.31;1661352;85;21050;-62
2021/12/06 00:38:24;;;;;;;12.35;2.20;;;;;;;11.18;100.00;150464.94;1655291;85;22487;-62
2021/12/06 00:40:50;;;;;;;9.80;2.15;;;;;;;11.20;100.00;150468.81;1655351;85;21937;-63
2021/12/06 00:43:17;;;;;;;14.20;2.65;;;;;;;11.17;100.00;150462.34;1659266;85;21535;-62
2021/12/06 00:45:44;;;;;;;7.10;2.15;;;;;;;11.14;100.00;150454.52;1656272;85;21174;-62
2021/12/06 00:48:10;;;;;;;6.17;2.27;;;;;;;11.17;100.00;150461.02;1659155;85;21009;-62
2021/12/06 00:50:41;;;;;;;11.75;3.15;;;;;;;11.18;100.00;150463.63;1659195;85;21152;-62
2021/12/06 00:53:08;;;;;;;9.08;2.55;;;;;;;11.20;100.00;150467.53;1668885;83;20986;-58
2021/12/06 00:55:35;;;;;;;6.62;2.42;;;;;;;11.17;100.00;150462.34;1703038;82;21278;-58
2021/12/06 00:58:02;;;;;;;8.43;2.72;;;;;;;11.15;100.00;150457.11;1701422;82;21361;-58
2021/12/06 01:00:38;;;;;;;8.43;2.67;;;;;;;11.10;100.00;150444.14;1686721;83;21095;-58
2021/12/06 01:03:10;;;;;;;6.45;3.00;;;;;;;11.07;100.00;150436.36;1660661;84;21141;-58
2021/12/06 01:05:37;;;;;;;7.55;2.30;;;;;;;11.04;100.00;150429.84;1679764;83;21065;-59
2021/12/06 01:08:04;;;;;;;11.97;2.45;;;;;;;11.02;100.00;150424.66;1680182;84;21068;-58
2021/12/06 01:10:31;;;;;;;7.15;2.50;;;;;;;11.00;100.00;150418.20;1683977;83;21114;-58
2021/12/06 01:12:58;;;;;;;10.30;2.60;;;;;;;10.98;100.00;150413.00;1681259;83;21056;-58
2021/12/06 01:15:26;;;;;;;11.00;2.60;;;;;;;10.99;100.00;150415.59;1682469;83;21416;-58
2021/12/06 01:17:53;;;;;;;6.42;2.30;;;;;;;11.01;100.00;150420.78;1678773;84;21063;-60
2021/12/06 01:20:25;;;;;;;11.63;3.15;;;;;;;11.03;100.00;150425.98;1678647;83;21122;-58
2021/12/06 01:22:57;;;;;;;7.53;2.27;;;;;;;11.04;100.00;150429.84;1681107;84;21205;-57
2021/12/06 01:25:31;;;;;;;6.83;2.30;;;;;;;11.07;100.00;150436.36;1681979;83;21072;-60
2021/12/06 01:41:19;;;;;;;5.45;2.50;;;;;;;11.17;100.00;150462.34;1698042;83;22045;-57
2021/12/06 01:44:26;;;;;;;9.70;2.72;;;;;;;11.16;100.00;150459.75;1701738;82;21089;-58
2021/12/06 01:47:02;;;;;;;6.70;2.15;;;;;;;11.17;100.00;150462.34;1700274;82;21131;-58
2021/12/06 01:49:38;;;;;;;11.33;2.70;;;;;;;11.15;100.00;150457.11;1701260;82;21116;-59
2021/12/06 01:52:13;;;;;;;9.63;2.10;;;;;;;11.18;100.00;150464.94;1696553;82;21005;-59
2021/12/06 01:54:40;;;;;;;8.20;3.05;;;;;;;11.20;100.00;150467.53;1676683;84;21087;-58
2021/12/06 01:57:07;;;;;;;8.45;2.22;;;;;;;11.21;100.00;150470.12;1678672;84;21108;-58
2021/12/06 01:59:34;;;;;;;11.25;2.70;;;;;;;11.18;100.00;150464.94;1681968;84;21941;-58
2021/12/06 02:02:00;;;;;;;13.85;2.80;;;;;;;11.23;100.00;150475.31;1681906;84;21210;-58
2021/12/06 02:04:28;;;;;;;9.68;3.10;;;;;;;11.23;100.00;150475.31;1683172;84;21145;-58
2021/12/06 02:06:57;;;;;;;10.68;3.45;;;;;;;11.21;100.00;150471.41;1697252;82;21094;-58
2021/12/06 02:09:27;;;;;;;13.50;3.37;;;;;;;11.22;100.00;150474.00;1677170;84;22083;-58
2021/12/06 02:11:59;;;;;;;12.20;2.77;;;;;;;11.25;100.00;150480.50;1658205;84;21227;-58
2021/12/06 02:14:34;;;;;;;8.10;2.70;;;;;;;11.25;100.00;150481.78;1677088;84;21597;-58
2021/12/06 02:17:24;;;;;;;9.63;2.90;;;;;;;11.27;100.00;150485.69;1676357;84;21076;-58
2021/12/06 02:19:32;;;;;;;12.28;2.80;;;;;;;11.27;100.00;150485.69;1668483;84;21490;-57
2021/12/06 02:21:56;;;;;;;11.05;2.70;;;;;;;11.27;100.00;150485.69;1677381;84;20971;-58
2021/12/06 02:24:23;;;;;;;9.13;2.60;;;;;;;11.27;100.00;150485.69;1678932;84;21084;-58
2021/12/06 02:26:51;;;;;;;6.72;2.77;;;;;;;11.26;100.00;150483.09;1699304;83;40068;-58
2021/12/06 02:29:18;;;;;;;14.43;3.00;;;;;;;11.26;100.00;150483.09;1702547;82;21155;-58
2021/12/06 02:31:44;;;;;;;11.10;2.80;;;;;;;11.27;100.00;150485.69;1698729;82;21087;-59
2021/12/06 02:34:11;;;;;;;9.80;2.95;;;;;;;11.27;100.00;150487.02;1699105;82;21033;-58
2021/12/06 02:36:38;;;;;;;14.83;3.85;;;;;;;11.30;100.00;150493.47;1679227;84;21258;-58
2021/12/06 02:39:08;;;;;;;9.65;3.75;;;;;;;11.34;100.00;150502.58;1683917;84;21129;-59
2021/12/06 02:41:34;;;;;;;14.50;3.52;;;;;;;11.35;100.00;150506.44;1677554;84;21043;-58
2021/12/06 02:44:02;;;;;;;11.30;3.83;;;;;;;11.32;100.00;150499.98;1681944;84;21036;-58
2021/12/06 02:46:28;;;;;;;9.60;3.40;;;;;;;11.32;100.00;150499.98;1663333;84;21565;-59
2021/12/06 02:48:55;;;;;;;12.65;2.92;;;;;;;11.31;100.00;150496.06;1676197;84;21186;-59
2021/12/06 02:51:22;;;;;;;13.22;3.30;;;;;;;11.30;100.00;150493.47;1679895;84;21803;-59
2021/12/06 02:53:49;;;;;;;21.27;3.65;;;;;;;11.33;100.00;150501.27;1681932;84;21584;-58
2021/12/06 02:56:32;;;;;;;19.48;4.20;;;;;;;11.33;100.00;150501.27;1680449;84;20991;-58
2021/12/06 02:59:02;;;;;;;9.80;2.87;;;;;;;11.32;100.00;150498.66;1681577;84;21140;-59
2021/12/06 03:01:41;;;;;;;14.43;3.60;;;;;;;11.36;100.00;150509.05;1681708;84;21215;-59
2021/12/06 03:04:08;;;;;;;13.43;4.22;;;;;;;11.36;100.00;150509.05;1676221;84;21146;-59
2021/12/06 03:06:37;;;;;;;11.40;2.87;;;;;;;11.36;100.00;150509.05;1678245;84;21096;-59
2021/12/06 03:09:14;;;;;;;16.65;2.83;;;;;;;11.38;100.00;150514.23;1680003;84;21169;-58
2021/12/06 03:12:03;;;;;;;10.35;3.15;;;;;;;11.40;100.00;150518.16;1681219;84;21148;-58
2021/12/06 03:14:33;;;;;;;15.10;3.02;;;;;;;11.42;100.00;150524.66;1678407;84;21689;-58
2021/12/06 03:17:05;;;;;;;10.72;3.20;;;;;;;11.43;100.00;150525.94;1679646;84;21132;-57
2021/12/06 03:19:33;;;;;;;12.73;2.77;;;;;;;11.43;100.00;150527.25;1684170;84;21047;-58
2021/12/06 03:21:59;;;;;;;8.95;2.50;;;;;;;11.42;100.00;150524.66;1683623;84;21169;-58
2021/12/06 03:24:26;;;;;;;9.88;2.50;;;;;;;11.43;100.00;150527.25;1678571;84;21544;-62
2021/12/06 03:26:54;;;;;;;10.68;2.85;;;;;;;11.44;100.00;150529.84;1677907;84;21135;-62
2021/12/06 03:29:21;;;;;;;14.73;2.70;;;;;;;11.49;100.00;150540.22;1673475;84;23173;-62
2021/12/06 03:31:50;;;;;;;13.95;2.83;;;;;;;11.51;100.00;150546.73;1681212;84;21151;-62
2021/12/06 03:34:17;;;;;;;11.68;2.45;;;;;;;11.52;100.00;150548.02;1679915;84;21004;-62
2021/12/06 03:36:46;;;;;;;10.28;2.40;;;;;;;11.52;100.00;150548.02;1684215;84;21114;-62
2021/12/06 03:39:20;;;;;;;15.32;2.58;;;;;;;11.51;100.00;150545.42;1700678;82;21043;-62
2021/12/06 03:41:48;;;;;;;11.40;2.40;;;;;;;11.50;100.00;150542.81;1680156;84;21100;-61
2021/12/06 03:44:18;;;;;;;13.32;2.80;;;;;;;11.52;100.00;150548.02;1702522;83;21021;-61
2021/12/06 03:46:50;;;;;;;12.35;2.62;;;;;;;11.53;100.00;150550.61;1694240;83;21070;-61
2021/12/06 03:49:17;;;;;;;11.12;3.08;;;;;;;11.54;100.00;150554.53;1692080;83;21094;-61
2021/12/06 03:51:45;;;;;;;13.20;3.08;;;;;;;11.55;100.00;150557.12;1704412;82;21477;-62
2021/12/06 03:54:16;;;;;;;9.23;3.12;;;;;;;11.56;100.00;150558.39;1709351;82;21793;-62
2021/12/06 03:56:44;;;;;;;13.20;2.72;;;;;;;11.57;100.00;150560.98;1706216;82;21137;-62
2021/12/06 03:59:11;;;;;;;15.78;2.80;;;;;;;11.60;100.00;150570.09;1706148;82;21556;-62
2021/12/06 04:01:38;;;;;;;13.80;3.42;;;;;;;11.60;100.00;150568.78;1710305;82;21100;-64
2021/12/06 04:04:06;;;;;;;13.00;3.25;;;;;;;11.62;100.00;150574.02;1701482;82;21057;-63
2021/12/06 04:06:33;;;;;;;12.95;3.00;;;;;;;11.63;100.00;150576.61;1703855;82;21217;-63
2021/12/06 04:09:01;;;;;;;15.30;2.70;;;;;;;11.63;100.00;150576.61;1667312;84;21103;-62
2021/12/06 04:11:30;;;;;;;9.30;2.65;;;;;;;11.63;100.00;150575.28;1673268;84;21083;-62
2021/12/06 04:13:57;;;;;;;11.22;2.75;;;;;;;11.65;100.00;150580.47;1681667;84;21687;-63
2021/12/06 04:16:24;;;;;;;10.48;3.20;;;;;;;11.66;100.00;150583.06;1680309;84;21068;-62
2021/12/06 04:18:54;;;;;;;11.63;2.77;;;;;;;11.65;100.00;150581.80;1702633;82;21695;-62
2021/12/06 04:21:21;;;;;;;11.50;3.27;;;;;;;11.69;100.00;150590.86;1700165;82;21080;-62
2021/12/06 04:23:48;;;;;;;8.75;2.90;;;;;;;11.68;100.00;150589.58;1703756;83;21094;-62
2021/12/06 04:26:15;;;;;;;11.20;2.45;;;;;;;11.68;100.00;150589.58;1701063;83;21010;-61
2021/12/06 04:28:49;;;;;;;16.87;3.22;;;;;;;11.70;100.00;150594.78;1701848;83;21523;-62
2021/12/06 04:31:12;;;;;;;11.40;2.98;;;;;;;11.70;100.00;150593.45;1701665;82;21029;-63
2021/12/06 04:33:39;;;;;;;10.58;2.47;;;;;;;11.69;100.00;150592.17;1710158;82;21580;-63
2021/12/06 04:36:06;;;;;;;11.50;2.95;;;;;;;11.69;100.00;150592.17;1713970;82;21108;-62
2021/12/06 04:38:33;;;;;;;11.95;2.72;;;;;;;11.70;100.00;150593.45;1680007;84;21580;-62
2021/12/06 04:41:02;;;;;;;12.33;2.92;;;;;;;11.68;100.00;150588.25;1684471;84;21082;-62
2021/12/06 04:43:30;;;;;;;7.17;2.52;;;;;;;11.69;100.00;150592.17;1668507;84;21885;-62
2021/12/06 04:45:56;;;;;;;11.25;2.87;;;;;;;11.70;100.00;150593.45;1668848;85;21531;-62
2021/12/06 04:48:24;;;;;;;9.75;3.17;;;;;;;11.70;100.00;150594.78;1681992;84;21124;-61
2021/12/06 04:50:50;;;;;;;9.13;2.92;;;;;;;11.71;100.00;150597.38;1681067;84;21543;-61
2021/12/06 04:53:25;;;;;;;12.65;2.87;;;;;;;11.71;100.00;150597.38;1680806;84;20990;-62
2021/12/06 04:55:56;;;;;;;11.53;3.00;;;;;;;11.72;100.00;150598.69;1683741;84;21114;-61
2021/12/06 04:58:28;;;;;;;12.75;2.83;;;;;;;11.74;100.00;150605.16;1679431;83;21075;-62
2021/12/06 05:01:03;;;;;;;14.15;3.12;;;;;;;11.75;100.00;150607.75;1681973;83;21126;-63
2021/12/06 05:03:30;;;;;;;13.05;3.52;;;;;;;11.79;100.00;150615.53;1682162;83;21083;-62
2021/12/06 05:06:00;;;;;;;9.48;3.05;;;;;;;11.79;100.00;150615.53;1679812;84;21045;-62
2021/12/06 05:08:31;;;;;;;15.65;3.95;;;;;;;11.74;100.00;150605.16;1680524;83;22448;-62
2021/12/06 05:10:58;;;;;;;12.23;3.22;;;;;;;11.71;100.00;150596.05;1684298;83;21628;-62
2021/12/06 05:13:26;;;;;;;10.00;3.27;;;;;;;11.68;100.00;150589.58;1680334;83;21084;-63
2021/12/06 05:15:53;;;;;;;14.47;3.10;;;;;;;11.68;100.00;150588.25;1699819;82;21106;-63
2021/12/06 05:18:21;;;;;;;10.85;3.10;;;;;;;11.69;100.00;150592.17;1660297;84;21060;-62
2021/12/06 05:20:48;;;;;;;12.55;3.35;;;;;;;11.74;100.00;150605.16;1678597;84;21163;-62
2021/12/06 05:23:15;;;;;;;13.65;3.80;;;;;;;11.81;100.00;150620.72;1702449;82;21133;-62
2021/12/06 05:25:41;;;;;;;10.48;3.55;;;;;;;11.85;100.00;150632.44;1703338;82;21189;-62
2021/12/06 05:28:08;;;;;;;12.47;3.12;;;;;;;11.88;100.00;150638.94;1702975;82;21124;-62
2021/12/06 05:30:37;;;;;;;13.25;3.30;;;;;;;11.92;100.00;150649.33;1699845;82;21556;-63
2021/12/06 05:33:06;;;;;;;13.83;3.65;;;;;;;11.94;100.00;150653.25;1700122;82;21504;-63
2021/12/06 05:35:33;;;;;;;14.25;3.70;;;;;;;11.96;100.00;150659.70;1701077;82;21552;-62
2021/12/06 05:38:02;;;;;;;19.20;3.85;;;;;;;11.99;100.00;150667.50;1697241;82;21052;-59
2021/12/06 05:40:32;;;;;;;11.48;3.58;;;;;;;11.96;100.00;150659.70;1699320;82;21148;-58
2021/12/06 05:42:59;;;;;;;12.60;3.05;;;;;;;11.95;100.00;150657.11;1701983;82;21015;-59
2021/12/06 05:45:28;;;;;;;13.88;3.52;;;;;;;11.93;100.00;150651.92;1700108;82;21114;-58
2021/12/06 05:47:56;;;;;;;7.70;2.90;;;;;;;11.94;100.00;150654.52;1661109;84;21030;-59
2021/12/06 05:50:23;;;;;;;14.93;4.50;;;;;;;11.93;100.00;150650.59;1665932;84;21000;-58
2021/12/06 05:52:54;;;;;;;17.92;3.62;;;;;;;11.89;100.00;150641.53;1660556;84;21103;-60
2021/12/06 05:55:23;;;;;;;14.25;3.62;;;;;;;11.88;100.00;150638.94;1660861;84;21557;-60
2021/12/06 05:57:49;;;;;;;13.65;3.22;;;;;;;11.89;100.00;150641.53;1674267;84;21712;-60
2021/12/06 06:00:17;;;;;;;15.98;3.52;;;;;;;11.91;100.00;150646.73;1678461;84;21431;-60
2021/12/06 06:02:46;;;;;;;11.28;3.27;;;;;;;11.90;100.00;150644.13;1685280;84;21141;-60
2021/12/06 06:05:13;;;;;;;10.13;3.00;;;;;;;11.93;100.00;150650.59;1684151;84;21056;-60
2021/12/06 06:07:42;;;;;;;12.18;3.47;;;;;;;11.96;100.00;150659.70;1682742;84;22152;-60
2021/12/06 06:10:09;;;;;;;15.35;4.03;;;;;;;11.98;100.00;150664.89;1685131;84;21170;-60
2021/12/06 06:12:35;;;;;;;11.12;3.30;;;;;;;12.00;100.00;150670.09;1708241;82;21092;-60
2021/12/06 06:15:05;;;;;;;10.72;3.08;;;;;;;12.01;100.00;150671.47;1706252;82;21589;-59
2021/12/06 06:17:39;;;;;;;9.83;3.40;;;;;;;12.01;100.00;150672.73;1699164;82;21504;-59
2021/12/06 06:20:00;;;;;;;13.68;3.17;;;;;;;12.03;100.00;150676.66;1702435;82;22026;-61
2021/12/06 06:22:27;;;;;;;17.37;3.60;;;;;;;12.07;100.00;150685.77;1704398;82;21146;-58
2021/12/06 06:24:54;;;;;;;10.98;3.22;;;;;;;12.09;100.00;150692.22;1706174;82;21668;-58
2021/12/06 06:27:20;;;;;;;16.37;3.85;;;;;;;12.09;100.00;150692.22;1672391;84;21095;-59
2021/12/06 06:29:47;;;;;;;12.73;2.77;;;;;;;12.10;100.00;150694.83;1684267;84;21044;-59
2021/12/06 06:32:14;;;;;;;14.63;3.30;;;;;;;12.10;100.00;150694.83;1683864;84;21110;-61
2021/12/06 06:34:41;;;;;;;17.27;3.67;;;;;;;12.10;100.00;150693.55;1681360;84;22206;-60
2021/12/06 06:37:07;;;;;;;16.77;3.77;;;;;;;12.11;100.00;150696.14;1712415;82;20964;-60
2021/12/06 06:39:34;;;;;;;15.45;3.45;;;;;;;12.13;100.00;150701.34;1702750;82;22206;-59
2021/12/06 06:42:01;;;;;;;12.82;3.08;;;;;;;12.11;100.00;150696.14;1683552;84;21143;-59
2021/12/06 06:44:28;;;;;;;12.03;3.52;;;;;;;12.10;100.00;150693.55;1680128;84;22489;-59
2021/12/06 06:46:54;;;;;;;15.43;3.10;;;;;;;12.09;100.00;150692.22;1663177;84;21111;-62
2021/12/06 06:49:22;;;;;;;20.02;3.72;;;;;;;12.10;100.00;150693.55;1664752;84;21090;-62
2021/12/06 06:51:49;;;;;;;18.23;3.75;;;;;;;12.14;100.00;150705.20;1664172;84;21206;-63
2021/12/06 06:54:15;;;;;;;14.47;3.22;;;;;;;12.18;100.00;150714.31;1662782;84;21063;-62
2021/12/06 06:56:42;;;;;;;15.60;3.70;;;;;;;12.21;100.00;150722.09;1664373;84;21122;-62
2021/12/06 06:59:10;;;;;;;8.18;2.95;;;;;;;12.24;100.00;150729.89;1693038;83;21572;-62
2021/12/06 07:01:37;;;;;;;18.35;3.20;;;;;;;12.27;100.00;150737.73;1690810;83;21174;-63
2021/12/06 07:04:04;;;;;;;18.42;3.22;;;;;;;12.29;100.00;150742.92;1699687;83;21110;-63
2021/12/06 07:06:32;;;;;;;16.45;3.58;;;;;;;12.31;100.00;150746.80;1690618;83;21084;-64
2021/12/06 07:08:59;;;;;;;8.80;3.12;;;;;;;12.32;100.00;150749.39;1693646;83;21158;-64
2021/12/06 07:11:28;;;;;;;16.42;3.52;;;;;;;12.35;100.00;150755.91;1693053;83;21040;-65
2021/12/06 07:14:07;;;;;;;16.87;4.00;;;;;;;12.35;100.00;150755.91;1692606;83;21643;-63
2021/12/06 07:16:35;;;;;;;16.57;3.62;;;;;;;12.34;100.00;150753.31;1694052;83;21532;-62
2021/12/06 07:19:03;;;;;;;16.93;3.27;;;;;;;12.35;100.00;150755.91;1690986;83;21106;-61
2021/12/06 07:21:30;;;;;;;12.60;3.10;;;;;;;12.37;100.00;150762.38;1688071;83;21162;-63
2021/12/06 07:23:58;;;;;;;13.75;2.95;;;;;;;12.42;100.00;150774.08;1682580;83;21120;-63
2021/12/06 07:26:26;;;;;;;14.38;3.33;;;;;;;12.49;100.00;150790.98;1669879;84;21099;-64
2021/12/06 07:28:55;;;;;;;10.80;3.12;;;;;;;12.54;100.00;150803.97;1671998;84;21730;-64
2021/12/06 07:31:24;;;;;;;13.30;3.37;;;;;;;12.55;100.00;150807.89;1674752;84;21155;-63
2021/12/06 07:33:54;;;;;;;19.32;3.87;;;;;;;12.54;100.00;150805.28;1674010;84;21131;-63
2021/12/06 07:36:23;;;;;;;15.60;3.22;;;;;;;12.55;100.00;150806.56;1676044;84;21489;-63
2021/12/06 07:38:50;;;;;;;14.58;3.33;;;;;;;12.59;100.00;150818.28;1652799;84;21137;-64
2021/12/06 07:41:18;;;;;;;13.10;3.55;;;;;;;12.60;100.00;150820.88;1674018;84;21129;-63
2021/12/06 07:43:46;;;;;;;16.82;3.58;;;;;;;12.61;100.00;150822.19;1675618;84;21087;-61
2021/12/06 07:46:12;;;;;;;17.00;3.30;;;;;;;12.64;100.00;150828.66;1673635;84;21041;-64
2021/12/06 07:48:39;;;;;;;14.15;3.15;;;;;;;12.68;100.00;150840.37;1672210;84;22625;-64
2021/12/06 07:51:06;;;;;;;9.05;2.83;;;;;;;12.72;100.00;150849.48;1673467;84;21114;-63
2021/12/06 07:53:34;;;;;;;13.90;3.20;;;;;;;12.77;100.00;150862.47;1675497;84;21095;-63
2021/12/06 07:56:04;;;;;;;13.10;3.83;;;;;;;12.84;100.00;150880.66;1694617;82;21527;-62
2021/12/06 07:58:30;;;;;;;9.18;3.17;;;;;;;12.94;100.00;150905.36;1667896;84;21067;-64
2021/12/06 08:00:57;;;;;;;16.55;3.85;;;;;;;12.99;100.00;150917.06;1675588;84;21116;-63
2021/12/06 08:03:26;;;;;;;17.20;3.25;;;;;;;12.99;100.00;150918.34;1672930;84;21588;-63
2021/12/06 08:05:53;;;;;;;16.55;3.33;;;;;;;13.00;100.00;150919.66;1676510;84;21112;-62
2021/12/06 08:08:26;;;;;;;10.80;3.02;;;;;;;13.03;100.00;150928.73;1679246;84;21080;-61
2021/12/06 08:10:59;;;;;;;12.73;2.83;;;;;;;13.07;100.00;150937.84;1678368;84;21170;-62
2021/12/06 08:13:30;;;;;;;14.50;3.00;;;;;;;13.04;99.59;150930.05;1677364;84;21525;-62
2021/12/06 08:16:03;;;;;;;18.37;4.47;;;;;;;13.00;99.75;150919.66;1679071;84;21088;-63
2021/12/06 08:18:31;;;;;;;13.30;3.27;;;;;;;13.03;99.86;150927.45;1677606;84;21229;-62
2021/12/06 08:20:59;;;;;;;13.20;3.22;;;;;;;13.04;99.54;150931.38;1673470;84;21343;-63
2021/12/06 08:23:26;;;;;;;14.10;3.60;;;;;;;13.01;99.45;150923.53;1675495;84;21040;-62
2021/12/06 08:25:53;;;;;;;11.70;3.25;;;;;;;12.98;99.56;150914.47;1675195;84;21247;-64
2021/12/06 08:28:23;;;;;;;15.15;3.40;;;;;;;12.98;99.67;150914.47;1675646;84;21088;-62
2021/12/06 08:30:52;;;;;;;18.90;3.52;;;;;;;12.97;99.97;150911.87;1678470;84;21171;-64
2021/12/06 08:33:19;;;;;;;13.10;3.70;;;;;;;13.01;100.00;150922.25;1681673;84;21110;-63
2021/12/06 08:35:48;;;;;;;13.25;3.95;;;;;;;13.08;100.00;150940.44;1678611;84;21154;-62
2021/12/06 08:38:15;;;;;;;17.12;3.50;;;;;;;13.06;99.87;150935.25;1678012;84;21147;-62
2021/12/06 08:40:43;;;;;;;22.05;3.72;;;;;;;13.08;99.80;150940.44;1681178;84;21084;-63
2021/12/06 08:43:16;;;;;;;13.48;3.37;;;;;;;13.09;99.71;150941.77;1679221;84;21634;-62
2021/12/06 08:45:39;;;;;;;13.40;3.70;;;;;;;13.12;99.74;150949.56;1679144;84;22262;-62
2021/12/06 08:48:06;;;;;;;12.25;4.08;;;;;;;13.15;99.62;150958.67;1678559;84;21165;-61
2021/12/06 08:50:33;;;;;;;15.75;4.47;;;;;;;13.18;99.43;150966.47;1676136;84;21575;-62
2021/12/06 08:53:00;;;;;;;14.58;4.15;;;;;;;13.20;99.44;150970.34;1677316;84;21051;-62
2021/12/06 08:55:26;;;;;;;13.43;3.72;;;;;;;13.22;99.12;150974.27;1675191;83;21065;-63
2021/12/06 08:57:55;;;;;;;15.72;3.98;;;;;;;13.23;99.18;150976.86;1679890;83;21154;-64
2021/12/06 09:00:27;;;;;;;17.62;4.33;;;;;;;13.28;98.94;150989.86;1672922;83;21142;-64
2021/12/06 09:02:55;;;;;;;15.78;4.17;;;;;;;13.32;98.78;151000.25;1678372;83;22468;-65
2021/12/06 09:05:24;;;;;;;25.12;4.72;;;;;;;13.36;98.59;151010.64;1677781;83;21157;-63
2021/12/06 09:07:51;;;;;;;13.85;4.15;;;;;;;13.39;98.36;151018.48;1679719;83;21122;-64
2021/12/06 09:10:20;;;;;;;15.60;3.60;;;;;;;13.42;98.06;151026.28;1673874;83;21100;-65
2021/12/06 09:12:46;;;;;;;16.42;4.75;;;;;;;13.42;98.03;151026.28;1681004;83;21114;-64
2021/12/06 09:15:16;;;;;;;15.58;5.58;;;;;;;13.49;97.91;151043.23;1657913;83;21145;-62
2021/12/06 09:17:44;;;;;;;19.10;5.22;;;;;;;13.53;97.63;151053.64;1696389;82;21010;-62
2021/12/06 09:20:12;;;;;;;14.65;5.08;;;;;;;13.58;97.34;151065.31;1697110;82;21117;-64
2021/12/06 09:22:40;;;;;;;25.77;5.35;;;;;;;13.59;97.01;151069.22;1701697;82;21097;-65
2021/12/06 09:25:09;;;;;;;15.72;5.00;;;;;;;13.64;96.78;151079.62;1677005;84;21078;-66
2021/12/06 09:27:36;;;;;;;20.55;5.10;;;;;;;13.67;96.56;151088.75;1699082;82;21096;-63
2021/12/06 09:30:05;;;;;;;16.17;4.90;;;;;;;13.70;96.30;151096.53;1701952;82;21552;-65
2021/12/06 09:32:32;;;;;;;16.60;5.55;;;;;;;13.77;96.07;151112.13;1701317;82;21149;-64
2021/12/06 09:34:59;;;;;;;22.00;5.65;;;;;;;13.82;95.80;151125.17;1679722;83;21093;-63
2021/12/06 09:37:26;;;;;;;17.32;5.35;;;;;;;13.86;95.43;151135.58;1675806;83;21071;-64
2021/12/06 09:39:53;;;;;;;21.30;5.28;;;;;;;13.89;95.28;151143.38;1678451;83;21152;-63
2021/12/06 09:42:21;;;;;;;16.25;5.22;;;;;;;13.91;94.86;151148.56;1681560;83;21109;-65
2021/12/06 09:44:48;;;;;;;17.82;5.78;;;;;;;13.93;94.68;151153.77;1681504;83;21158;-65
2021/12/06 09:47:14;;;;;;;17.10;6.03;;;;;;;13.92;94.51;151151.17;1672554;83;21101;-64
2021/12/06 09:49:42;;;;;;;18.92;5.75;;;;;;;13.91;94.39;151148.56;1679197;83;21118;-60
2021/12/06 09:52:09;;;;;;;22.00;5.70;;;;;;;13.86;94.35;151136.84;1675937;83;21400;-64
2021/12/06 09:54:39;;;;;;;16.23;5.58;;;;;;;13.84;94.43;151130.38;1681064;83;21476;-64
2021/12/06 09:57:07;;;;;;;21.75;5.92;;;;;;;13.80;94.31;151121.25;1665257;83;21051;-59
2021/12/06 09:59:36;;;;;;;16.27;5.50;;;;;;;13.72;94.37;151101.73;1658507;85;21102;-60
2021/12/06 10:02:08;;;;;;;20.80;6.30;;;;;;;13.69;94.76;151093.94;1654275;85;21865;-63
2021/12/06 10:04:39;;;;;;;17.00;6.60;;;;;;;13.69;94.83;151093.94;1659269;85;21504;-60
2021/12/06 10:07:09;;;;;;;18.48;6.65;;;;;;;13.67;95.07;151088.75;1659718;85;21135;-60
2021/12/06 10:09:37;;;;;;;21.62;5.67;;;;;;;13.65;95.25;151083.55;1661065;85;21479;-61
2021/12/06 10:12:06;;;;;;;17.55;5.58;;;;;;;13.65;95.27;151083.55;1658537;85;21131;-61
2021/12/06 10:14:35;;;;;;;22.05;6.37;;;;;;;13.64;95.37;151080.94;1658590;85;21122;-60
2021/12/06 10:17:05;;;;;;;18.52;5.50;;;;;;;13.62;95.39;151075.75;1656461;85;21900;-60
2021/12/06 10:19:32;;;;;;;22.32;6.03;;;;;;;13.60;95.52;151070.55;1659775;85;21107;-60
2021/12/06 10:22:00;;;;;;;17.85;5.30;;;;;;;13.58;95.87;151065.31;1698677;83;21106;-60
2021/12/06 10:24:29;;;;;;;18.35;5.28;;;;;;;13.59;95.97;151067.91;1684847;83;21419;-61
2021/12/06 10:27:07;;;;;;;12.98;4.90;;;;;;;13.57;95.95;151062.70;1694691;83;21085;-59
2021/12/06 10:29:44;;;;;;;21.15;5.25;;;;;;;13.56;96.11;151060.11;1699826;83;21858;-60
2021/12/06 10:32:14;;;;;;;22.17;5.70;;;;;;;13.55;96.22;151057.50;1701219;82;21154;-58
2021/12/06 10:34:48;;;;;;;18.87;5.53;;;;;;;13.54;96.48;151054.91;1696118;83;21132;-58
2021/12/06 10:37:45;;;;;;;22.93;7.25;;;;;;;13.55;96.53;151058.83;1695249;83;21250;-58
2021/12/06 10:40:32;;;;;;;15.43;4.72;;;;;;;13.55;96.56;151057.50;1694085;83;21435;-59
2021/12/06 10:43:04;;;;;;;20.80;5.28;;;;;;;13.53;96.64;151053.64;1690490;83;21331;-58
2021/12/06 10:45:48;;;;;;;17.00;5.10;;;;;;;13.51;96.74;151047.11;1660167;84;21128;-58
2021/12/06 10:48:21;;;;;;;29.45;5.40;;;;;;;13.54;97.02;151056.23;1659549;84;21125;-59
2021/12/06 10:50:56;;;;;;;21.75;5.35;;;;;;;13.61;97.08;151073.14;1664527;84;20976;-58
2021/12/06 10:53:40;;;;;;;;;;;;;;;13.67;97.09;151088.75;1659281;85;21138;-59
2021/12/06 10:56:05;;;;;;;22.90;5.12;;;;;;;13.70;96.73;151095.22;1669683;82;21038;-59
2021/12/06 10:58:32;;;;;;;20.85;5.15;;;;;;;13.69;96.50;151093.94;1678928;84;21054;-58
2021/12/06 11:01:11;;;;;;;20.95;5.17;;;;;;;13.67;96.20;151088.75;1675494;84;21083;-58
2021/12/06 11:03:45;;;;;;;23.70;5.08;;;;;;;13.65;96.23;151083.55;1674129;84;21304;-58
2021/12/06 11:06:18;;;;;;;19.42;5.22;;;;;;;13.64;96.16;151080.94;1673241;84;21635;-59
2021/12/06 11:08:44;;;;;;;27.17;5.37;;;;;;;13.64;96.22;151079.62;1674959;84;21723;-61
2021/12/06 11:11:19;;;;;;;23.45;5.50;;;;;;;13.65;96.21;151082.22;1675499;84;21629;-58
2021/12/06 11:13:49;;;;;;;27.40;6.10;;;;;;;13.65;96.09;151082.22;1678303;83;21470;-59
2021/12/06 11:16:28;;;;;;;20.60;5.67;;;;;;;13.62;96.13;151075.75;1676946;83;21125;-59
2021/12/06 11:19:00;;;;;;;20.32;5.05;;;;;;;13.61;96.23;151074.42;1676698;83;21374;-59
2021/12/06 11:21:42;;;;;;;20.77;4.87;;;;;;;13.61;96.25;151073.14;1678298;83;21012;-58
2021/12/06 11:24:14;;;;;;;21.37;5.25;;;;;;;13.56;96.24;151060.11;1675803;84;21106;-58
2021/12/06 11:26:56;;;;;;;22.87;5.55;;;;;;;13.51;96.57;151048.44;1675990;83;22387;-58
2021/12/06 11:29:40;;;;;;;16.48;5.87;;;;;;;13.50;96.74;151044.52;1678314;83;22216;-58
2021/12/06 11:32:26;;;;;;;20.43;5.30;;;;;;;13.46;97.02;151036.72;1647882;83;21106;-58
2021/12/06 11:34:57;;;;;;;21.17;5.75;;;;;;;13.46;97.17;151036.72;1676403;83;21535;-58
2021/12/06 11:37:37;;;;;;;27.62;7.12;;;;;;;13.41;97.18;151023.69;1675126;83;21099;-58